Time;durP1;ratioP1;P1;durP2;ratioP2;P2;SDS_P1;SDS_P2;PMS_P1;PMS_P2;Temp;Humidity;BMP_temperature;BMP_pressure;BME280_temperature;BME280_humidity;BME280_pressure;Samples;Min_cycle;Max_cycle;Signal;HPM_P1;HPM_P2
2024/03/23 00:00:30;;;;;;;6.85;4.90;;;;;;;5.33;44.17;93901.59;5033251;28;20512;-69
2024/03/23 00:02:55;;;;;;;11.75;4.65;;;;;;;5.36;43.88;93898.38;5036761;28;20472;-69
2024/03/23 00:05:21;;;;;;;6.32;4.07;;;;;;;5.47;43.50;93892.75;5039198;28;20040;-69
2024/03/23 00:07:46;;;;;;;6.85;3.72;;;;;;;5.51;43.14;93896.41;5033579;28;20457;-69
2024/03/23 00:10:12;;;;;;;6.70;3.63;;;;;;;5.51;42.67;93887.69;5039829;28;20635;-69
2024/03/23 00:12:37;;;;;;;5.68;3.28;;;;;;;5.53;42.61;93886.34;5036104;28;20036;-69
2024/03/23 00:15:03;;;;;;;7.78;3.00;;;;;;;5.47;42.50;93876.13;5038969;28;20675;-69
2024/03/23 00:17:29;;;;;;;3.40;3.10;;;;;;;5.47;42.70;93891.97;5043675;28;20120;-69
2024/03/23 00:19:54;;;;;;;18.38;5.18;;;;;;;5.49;42.49;93889.81;5042347;28;20104;-69
2024/03/23 00:22:19;;;;;;;4.80;3.20;;;;;;;5.42;42.74;93892.78;5038839;28;20140;-69
2024/03/23 00:24:45;;;;;;;9.15;4.53;;;;;;;5.48;42.66;93886.38;5042645;28;20094;-69
2024/03/23 00:27:10;;;;;;;6.82;4.07;;;;;;;5.44;43.02;93889.84;5036552;28;20110;-69
2024/03/23 00:29:36;;;;;;;7.75;4.95;;;;;;;5.49;42.50;93889.81;5039085;28;20473;-69
2024/03/23 00:32:01;;;;;;;6.35;4.30;;;;;;;5.47;42.72;93889.31;5039117;28;20027;-69
2024/03/23 00:34:26;;;;;;;4.97;3.88;;;;;;;5.38;42.56;93872.53;5038252;28;20506;-69
2024/03/23 00:36:52;;;;;;;7.82;4.20;;;;;;;5.34;42.42;93889.94;5039529;28;20526;-69
2024/03/23 00:39:19;;;;;;;12.98;4.68;;;;;;;5.30;42.37;93888.94;5041150;28;20412;-69
2024/03/23 00:41:45;;;;;;;6.82;4.32;;;;;;;5.28;42.35;93888.44;5038112;28;20047;-69
2024/03/23 00:44:10;;;;;;;6.55;4.13;;;;;;;5.26;42.27;93886.09;5041681;28;20033;-69
2024/03/23 00:46:35;;;;;;;6.82;4.10;;;;;;;5.04;42.81;93883.88;5039930;28;20076;-69
2024/03/23 00:49:01;;;;;;;5.40;3.90;;;;;;;4.86;43.17;93889.84;5035964;28;20437;-69
2024/03/23 00:51:26;;;;;;;7.15;4.70;;;;;;;4.88;43.50;93885.09;5038595;28;20410;-69
2024/03/23 00:53:51;;;;;;;5.38;4.18;;;;;;;5.06;42.86;93887.03;5043728;28;20454;-69
2024/03/23 00:56:17;;;;;;;7.38;4.40;;;;;;;4.95;43.23;93882.91;5040394;28;20474;-69
2024/03/23 00:58:42;;;;;;;4.60;3.58;;;;;;;4.88;43.51;93884.28;5036403;28;20041;-69
2024/03/23 01:01:07;;;;;;;4.45;3.40;;;;;;;4.94;43.30;93889.22;5037008;28;20985;-69
2024/03/23 01:03:33;;;;;;;3.58;3.03;;;;;;;5.09;42.76;93881.22;5035722;28;20033;-69
2024/03/23 01:06:03;;;;;;;3.17;2.40;;;;;;;5.07;42.58;93878.06;5038802;28;20570;-69
2024/03/23 01:08:28;;;;;;;7.30;2.47;;;;;;;4.88;42.79;93871.91;5035746;28;20028;-68
2024/03/23 01:10:58;;;;;;;3.03;2.30;;;;;;;4.85;42.76;93863.75;5039083;28;20048;-69
2024/03/23 01:13:24;;;;;;;6.30;2.42;;;;;;;4.93;42.46;93863.97;5037680;28;20041;-69
2024/03/23 01:15:51;;;;;;;5.65;3.13;;;;;;;4.91;42.42;93858.16;5038117;28;20037;-69
2024/03/23 01:18:17;;;;;;;4.20;2.97;;;;;;;4.87;42.63;93865.06;5037067;28;20037;-69
2024/03/23 01:20:43;;;;;;;5.90;3.50;;;;;;;4.85;42.85;93864.53;5039743;28;20048;-69
2024/03/23 01:23:08;;;;;;;3.92;3.00;;;;;;;4.74;43.27;93867.53;5038278;28;20593;-69
2024/03/23 01:25:34;;;;;;;7.20;3.17;;;;;;;4.83;43.15;93863.25;5035610;28;20033;-69
2024/03/23 01:27:59;;;;;;;5.45;3.42;;;;;;;4.84;43.21;93873.53;5037492;28;20524;-69
2024/03/23 01:30:24;;;;;;;3.92;2.88;;;;;;;4.90;42.88;93864.50;5037468;28;20059;-70
2024/03/23 01:32:49;;;;;;;5.03;4.05;;;;;;;4.92;42.85;93865.03;5038617;28;20040;-69
2024/03/23 01:35:15;;;;;;;3.55;2.90;;;;;;;4.81;43.21;93866.16;5039745;28;20059;-69
2024/03/23 01:37:40;;;;;;;4.60;3.00;;;;;;;4.65;43.89;93869.94;5038048;28;20041;-69
2024/03/23 01:40:06;;;;;;;8.00;3.67;;;;;;;3.82;45.54;93872.47;5036898;28;20106;-69
2024/03/23 01:42:31;;;;;;;5.60;4.28;;;;;;;4.27;44.89;93874.91;5036207;28;20064;-69
2024/03/23 01:44:57;;;;;;;6.40;4.47;;;;;;;4.37;44.27;93862.78;5039209;28;20148;-69
2024/03/23 01:47:22;;;;;;;6.57;4.85;;;;;;;4.55;44.38;93875.31;5039143;28;20021;-69
2024/03/23 01:49:48;;;;;;;6.70;3.97;;;;;;;4.58;44.19;93869.50;5038832;28;20533;-69
2024/03/23 01:52:14;;;;;;;4.68;3.67;;;;;;;4.46;44.33;93875.09;5038693;28;20029;-69
2024/03/23 01:54:40;;;;;;;5.55;3.35;;;;;;;4.55;44.14;93870.06;5037817;28;20410;-69
2024/03/23 01:57:06;;;;;;;4.40;3.35;;;;;;;4.62;43.49;93870.50;5042213;28;20048;-70
2024/03/23 01:59:32;;;;;;;3.15;2.85;;;;;;;4.65;42.99;93870.75;5038701;28;20017;-69
2024/03/23 02:01:57;;;;;;;3.88;2.80;;;;;;;4.53;43.47;93866.88;5038729;28;20033;-69
2024/03/23 02:04:22;;;;;;;6.85;3.28;;;;;;;4.43;43.46;93872.22;5037094;28;20041;-69
2024/03/23 02:06:48;;;;;;;4.32;3.22;;;;;;;4.46;43.52;93867.19;5037877;28;20632;-69
2024/03/23 02:09:13;;;;;;;4.72;4.00;;;;;;;4.42;43.42;93875.91;5036897;28;20041;-69
2024/03/23 02:11:39;;;;;;;5.22;3.20;;;;;;;4.27;43.55;93869.63;5037128;28;20017;-69
2024/03/23 02:14:04;;;;;;;5.22;3.47;;;;;;;4.44;43.09;93876.44;5035018;28;20378;-69
2024/03/23 02:16:30;;;;;;;4.28;3.03;;;;;;;4.48;42.92;93877.47;5037794;28;20037;-69
2024/03/23 02:18:55;;;;;;;4.38;2.78;;;;;;;4.28;43.14;93879.13;5035568;28;20483;-69
2024/03/23 02:21:20;;;;;;;5.13;3.15;;;;;;;4.23;43.54;93873.88;5031417;28;20037;-69
2024/03/23 02:23:46;;;;;;;5.70;2.72;;;;;;;4.23;43.59;93884.41;5037161;28;20112;-69
2024/03/23 02:26:11;;;;;;;5.78;3.33;;;;;;;4.22;43.57;93880.19;5036392;28;20021;-69
2024/03/23 02:28:36;;;;;;;5.07;3.65;;;;;;;4.11;44.04;93876.03;5037625;28;20041;-69
2024/03/23 02:31:04;;;;;;;4.68;3.35;;;;;;;4.17;44.04;93890.75;5035822;28;20179;-69
2024/03/23 02:33:29;;;;;;;7.35;3.97;;;;;;;4.23;43.90;93879.16;5034175;28;20064;-69
2024/03/23 02:35:58;;;;;;;2.90;2.60;;;;;;;4.24;43.59;93880.72;5037561;28;20045;-69
2024/03/23 02:38:24;;;;;;;3.35;2.90;;;;;;;4.34;43.32;93879.91;5034833;28;20158;-69
2024/03/23 02:40:49;;;;;;;5.97;3.03;;;;;;;4.23;43.68;93879.16;5036950;28;20529;-69
2024/03/23 02:43:14;;;;;;;4.70;3.08;;;;;;;4.15;43.13;93869.19;5035248;28;20387;-70
2024/03/23 02:45:40;;;;;;;6.72;3.33;;;;;;;4.05;43.41;93868.44;5037296;28;20533;-69
2024/03/23 02:48:05;;;;;;;3.38;3.00;;;;;;;4.17;43.36;93869.69;5038450;28;20037;-69
2024/03/23 02:50:31;;;;;;;8.77;5.07;;;;;;;4.20;43.08;93871.81;5040808;28;20209;-68
2024/03/23 02:52:56;;;;;;;8.55;3.88;;;;;;;3.53;45.20;93876.78;5040033;28;20029;-69
2024/03/23 02:55:22;;;;;;;8.55;5.22;;;;;;;3.92;44.34;93867.19;5038318;28;20029;-69
2024/03/23 02:57:47;;;;;;;7.25;5.10;;;;;;;3.88;44.14;93871.41;5039046;28;20053;-69
2024/03/23 03:00:13;;;;;;;13.05;7.13;;;;;;;3.87;44.61;93869.81;5038214;28;20032;-69
2024/03/23 03:02:38;;;;;;;8.40;5.57;;;;;;;3.96;44.18;93868.22;5036313;28;20076;-69
2024/03/23 03:05:05;;;;;;;8.23;6.20;;;;;;;3.80;44.58;93867.50;5038505;28;20490;-69
2024/03/23 03:07:32;;;;;;;6.63;5.13;;;;;;;3.63;44.93;93864.41;5040715;28;20178;-69
2024/03/23 03:09:57;;;;;;;5.90;4.75;;;;;;;3.64;44.97;93868.59;5041127;28;20036;-69
2024/03/23 03:12:22;;;;;;;7.00;4.50;;;;;;;3.64;44.73;93865.19;5040446;28;20045;-69
2024/03/23 03:14:48;;;;;;;9.73;5.03;;;;;;;3.60;44.90;93872.03;5038849;28;20506;-69
2024/03/23 03:17:14;;;;;;;8.15;4.28;;;;;;;3.77;44.79;93867.25;5038171;28;20092;-69
2024/03/23 03:19:40;;;;;;;5.57;4.00;;;;;;;3.61;45.05;93871.00;5038396;28;20037;-69
2024/03/23 03:22:05;;;;;;;8.02;4.50;;;;;;;3.58;45.35;93877.56;5042823;28;20383;-68
2024/03/23 03:24:30;;;;;;;5.63;3.95;;;;;;;3.76;44.86;93871.72;5040250;28;20025;-69
2024/03/23 03:26:57;;;;;;;9.70;5.00;;;;;;;3.66;45.11;93873.59;5035959;28;20029;-69
2024/03/23 03:29:22;;;;;;;7.03;4.50;;;;;;;3.49;45.68;93873.13;5041845;28;20095;-69
2024/03/23 03:31:49;;;;;;;10.00;5.88;;;;;;;3.49;45.93;93878.38;5038323;28;20029;-69
2024/03/23 03:34:15;;;;;;;6.78;4.90;;;;;;;3.57;45.65;93876.00;5040291;28;20025;-69
2024/03/23 03:36:40;;;;;;;9.23;5.80;;;;;;;3.56;45.81;93869.16;5037834;28;20032;-70
2024/03/23 03:39:06;;;;;;;12.60;7.57;;;;;;;3.53;45.79;93874.16;5040378;28;20505;-69
2024/03/23 03:41:32;;;;;;;14.18;9.48;;;;;;;3.34;46.27;93856.31;5039564;28;20108;-69
2024/03/23 03:44:01;;;;;;;16.83;9.95;;;;;;;3.40;46.31;93875.50;5039488;28;20051;-69
2024/03/23 03:46:30;;;;;;;10.13;7.00;;;;;;;3.24;46.77;93871.31;5037472;28;20053;-69
2024/03/23 03:48:55;;;;;;;8.80;5.90;;;;;;;3.31;46.83;93871.84;5039100;28;20107;-69
2024/03/23 03:51:21;;;;;;;8.73;5.03;;;;;;;3.53;46.09;93880.19;5036007;28;20128;-69
2024/03/23 03:53:46;;;;;;;7.53;5.10;;;;;;;3.39;46.46;93879.97;5037711;28;20056;-69
2024/03/23 03:56:11;;;;;;;7.13;4.82;;;;;;;3.38;46.35;93875.75;5040962;28;20186;-69
2024/03/23 03:58:37;;;;;;;4.70;4.18;;;;;;;3.31;46.52;93877.91;5038237;28;20561;-69
2024/03/23 04:01:02;;;;;;;4.63;3.92;;;;;;;3.40;46.38;93873.66;5039249;28;20695;-69
2024/03/23 04:03:28;;;;;;;8.88;5.05;;;;;;;3.58;45.94;93872.31;5023976;28;20551;-69
2024/03/23 04:05:54;;;;;;;6.30;4.13;;;;;;;3.68;45.56;93871.47;5035859;28;20618;-69
2024/03/23 04:08:20;;;;;;;10.20;5.40;;;;;;;3.58;45.73;93872.31;5036881;28;20033;-69
2024/03/23 04:10:46;;;;;;;6.78;4.57;;;;;;;3.48;45.97;93866.31;5033763;28;20050;-69
2024/03/23 04:13:12;;;;;;;9.07;4.88;;;;;;;3.49;46.08;93883.63;5016651;28;20045;-68
2024/03/23 04:15:37;;;;;;;7.40;4.18;;;;;;;3.32;46.57;93884.75;5021415;28;20057;-69
2024/03/23 04:18:03;;;;;;;5.63;3.80;;;;;;;3.31;46.82;93887.63;5020353;28;20034;-69
2024/03/23 04:20:28;;;;;;;5.55;3.90;;;;;;;3.24;46.83;93889.72;5018384;28;20487;-69
2024/03/23 04:22:54;;;;;;;9.05;4.40;;;;;;;3.26;46.87;93877.13;5018957;28;20037;-69
2024/03/23 04:25:19;;;;;;;9.20;4.63;;;;;;;3.37;46.52;93878.69;5018553;28;20017;-68
2024/03/23 04:27:45;;;;;;;8.00;5.38;;;;;;;3.41;46.69;93890.22;5018140;28;20112;-69
2024/03/23 04:30:11;;;;;;;8.45;5.65;;;;;;;3.40;46.51;93876.28;5020479;28;20042;-69
2024/03/23 04:32:40;;;;;;;8.15;5.90;;;;;;;3.20;47.00;93881.59;5019717;28;20503;-68
2024/03/23 04:35:05;;;;;;;14.40;6.65;;;;;;;3.05;47.60;93894.75;5015931;28;20069;-69
2024/03/23 04:37:34;;;;;;;8.90;5.60;;;;;;;2.92;48.20;93884.78;5015708;28;20069;-69
2024/03/23 04:40:04;;;;;;;16.35;6.22;;;;;;;3.02;48.09;93890.03;5020170;28;20478;-69
2024/03/23 04:42:30;;;;;;;12.65;6.40;;;;;;;2.96;48.38;93883.19;5039381;28;20048;-69
2024/03/23 04:44:55;;;;;;;11.10;6.93;;;;;;;3.11;47.97;93892.91;5042120;28;20040;-68
2024/03/23 04:47:21;;;;;;;10.55;6.82;;;;;;;3.28;47.75;93885.53;5025359;28;20042;-69
2024/03/23 04:49:46;;;;;;;13.65;7.85;;;;;;;3.45;47.28;93893.13;5020253;28;20057;-69
2024/03/23 04:52:12;;;;;;;13.27;8.23;;;;;;;3.59;46.90;93900.19;5015708;28;20479;-68
2024/03/23 04:54:37;;;;;;;10.68;6.55;;;;;;;3.69;46.60;93896.72;5019968;28;20028;-69
2024/03/23 04:57:03;;;;;;;12.52;7.18;;;;;;;3.74;46.75;93899.34;5017269;28;20044;-68
2024/03/23 04:59:28;;;;;;;13.30;6.72;;;;;;;3.63;47.01;93897.78;5017695;28;20537;-69
2024/03/23 05:01:53;;;;;;;13.10;8.00;;;;;;;3.83;46.64;93895.09;5014703;28;20499;-69
2024/03/23 05:04:19;;;;;;;13.93;8.55;;;;;;;3.85;46.78;93898.25;5021604;28;20025;-68
2024/03/23 05:06:44;;;;;;;14.50;8.82;;;;;;;4.05;46.34;93881.63;5023451;28;20020;-69
2024/03/23 05:09:11;;;;;;;17.55;9.13;;;;;;;4.28;46.63;93902.03;5024221;28;20203;-69
2024/03/23 05:11:41;;;;;;;14.35;9.50;;;;;;;4.32;46.87;93895.19;5019489;28;20042;-69
2024/03/23 05:14:07;;;;;;;13.93;9.80;;;;;;;4.50;46.52;93889.28;5021120;28;20498;-69
2024/03/23 05:16:32;;;;;;;13.73;9.95;;;;;;;4.72;46.57;93886.25;5020079;28;20044;-69
2024/03/23 05:18:58;;;;;;;21.42;12.48;;;;;;;4.67;46.93;93888.91;5017202;28;20491;-69
2024/03/23 05:21:23;;;;;;;23.48;12.57;;;;;;;4.83;46.79;93886.97;5036568;28;20049;-69
2024/03/23 05:23:48;;;;;;;20.95;11.82;;;;;;;4.83;47.01;93881.69;5037662;28;20037;-68
2024/03/23 05:26:14;;;;;;;18.17;12.45;;;;;;;4.83;47.05;93866.69;5040050;28;20482;-69
2024/03/23 05:28:40;;;;;;;26.58;14.15;;;;;;;4.80;47.11;93877.75;5039247;28;20128;-68
2024/03/23 05:31:05;;;;;;;22.40;14.43;;;;;;;5.00;46.95;93876.81;5040354;28;20132;-68
2024/03/23 05:33:31;;;;;;;18.80;11.55;;;;;;;4.96;47.12;93878.44;5043339;28;20077;-69
2024/03/23 05:35:57;;;;;;;20.23;14.18;;;;;;;5.00;47.14;93874.97;5038230;28;20363;-69
2024/03/23 05:38:23;;;;;;;19.42;12.85;;;;;;;5.04;46.87;93875.22;5037768;28;20034;-68
2024/03/23 05:40:58;;;;;;;20.73;13.48;;;;;;;4.96;47.16;93866.03;5039155;28;20520;-69
2024/03/23 05:43:24;;;;;;;21.42;12.82;;;;;;;5.11;47.17;93883.56;5038481;28;20406;-69
2024/03/23 05:45:57;;;;;;;21.85;13.15;;;;;;;4.87;47.36;93888.00;5035446;28;20057;-69
2024/03/23 05:48:22;;;;;;;18.90;13.50;;;;;;;5.08;47.04;93882.28;5039400;28;20038;-69
2024/03/23 05:50:49;;;;;;;22.70;13.30;;;;;;;5.42;46.65;93892.78;5038473;28;20038;-69
2024/03/23 05:53:16;;;;;;;19.50;13.07;;;;;;;5.51;46.11;93883.22;5038879;28;20044;-69
2024/03/23 05:55:41;;;;;;;31.13;15.70;;;;;;;5.42;46.12;93884.09;5038322;28;20041;-69
2024/03/23 05:58:06;;;;;;;23.33;14.32;;;;;;;5.27;46.70;93881.59;5043778;28;20106;-68
2024/03/23 06:00:32;;;;;;;22.85;14.30;;;;;;;5.06;47.02;93883.63;5040487;28;20261;-69
2024/03/23 06:02:57;;;;;;;29.48;14.35;;;;;;;5.47;46.25;93887.47;5038744;28;20637;-69
2024/03/23 06:05:23;;;;;;;22.00;13.70;;;;;;;5.70;45.77;93883.28;5040428;28;20048;-69
2024/03/23 06:07:49;;;;;;;23.48;13.60;;;;;;;5.87;45.48;93865.13;5040589;28;20167;-69
2024/03/23 06:10:15;;;;;;;25.02;16.90;;;;;;;6.04;44.37;93882.34;5037761;28;20041;-68
2024/03/23 06:12:41;;;;;;;27.55;14.57;;;;;;;5.89;44.94;93884.13;5039546;28;20039;-69
2024/03/23 06:15:10;;;;;;;24.88;14.38;;;;;;;6.05;44.84;93881.28;5040292;28;20709;-69
2024/03/23 06:17:36;;;;;;;29.00;14.93;;;;;;;5.29;45.16;93880.25;5037061;28;20033;-69
2024/03/23 06:20:01;;;;;;;27.55;15.93;;;;;;;5.44;46.05;93872.19;5036394;28;20514;-69
2024/03/23 06:22:27;;;;;;;22.75;15.98;;;;;;;5.98;45.37;93869.22;5036135;28;20052;-68
2024/03/23 06:24:52;;;;;;;25.27;16.00;;;;;;;6.14;44.48;93869.03;5042619;28;20036;-69
2024/03/23 06:27:17;;;;;;;34.90;17.52;;;;;;;6.14;43.90;93874.31;5039684;28;20033;-69
2024/03/23 06:29:43;;;;;;;29.98;16.05;;;;;;;6.30;44.74;93878.38;5026605;28;20041;-69
2024/03/23 06:32:08;;;;;;;24.95;16.50;;;;;;;6.55;44.28;93870.09;5019921;28;20070;-69
2024/03/23 06:34:33;;;;;;;28.33;14.75;;;;;;;6.58;43.83;93872.16;5018901;28;20037;-69
2024/03/23 06:36:59;;;;;;;23.92;15.00;;;;;;;6.62;44.17;93862.59;5014427;28;20045;-69
2024/03/23 06:39:24;;;;;;;24.67;14.70;;;;;;;6.64;43.36;93878.97;5016696;28;20480;-69
2024/03/23 06:41:53;;;;;;;23.08;13.25;;;;;;;6.95;43.48;93870.53;5015978;28;20048;-69
2024/03/23 06:44:19;;;;;;;23.77;14.45;;;;;;;7.27;43.34;93875.84;5018667;28;20041;-69
2024/03/23 06:46:45;;;;;;;24.30;15.13;;;;;;;7.06;43.37;93879.91;5024001;28;20041;-69
2024/03/23 06:49:11;;;;;;;18.02;11.57;;;;;;;7.06;42.88;93878.03;5017935;28;20032;-69
2024/03/23 06:51:37;;;;;;;16.58;12.00;;;;;;;7.12;42.89;93876.09;5016042;28;20459;-69
2024/03/23 06:54:03;;;;;;;20.08;13.95;;;;;;;7.31;42.88;93871.56;5016849;28;20044;-69
2024/03/23 06:56:29;;;;;;;23.20;13.30;;;;;;;7.19;43.33;93872.00;5017292;28;20099;-69
2024/03/23 06:58:55;;;;;;;22.85;13.50;;;;;;;7.46;42.43;93873.94;5015458;28;20446;-69
2024/03/23 07:01:21;;;;;;;23.95;14.60;;;;;;;7.04;43.32;93868.84;5015891;28;20487;-68
2024/03/23 07:03:46;;;;;;;17.70;12.23;;;;;;;7.36;42.31;93873.31;5017744;28;20061;-69
2024/03/23 07:06:11;;;;;;;21.25;13.20;;;;;;;7.32;43.23;93873.13;5018779;28;20029;-68
2024/03/23 07:08:37;;;;;;;21.40;13.00;;;;;;;7.45;43.31;93869.72;5021326;28;20474;-69
2024/03/23 07:11:02;;;;;;;21.65;13.50;;;;;;;7.38;42.71;93861.38;5019956;28;20180;-69
2024/03/23 07:13:28;;;;;;;20.98;13.70;;;;;;;7.47;42.95;93869.44;5017235;28;20038;-69
2024/03/23 07:15:55;;;;;;;22.02;13.38;;;;;;;7.67;42.29;93863.78;5025128;28;20051;-68
2024/03/23 07:18:21;;;;;;;25.83;13.82;;;;;;;7.76;42.09;93862.03;5021655;28;20030;-69
2024/03/23 07:20:57;;;;;;;22.30;13.95;;;;;;;7.75;41.54;93854.38;5013708;28;20034;-69
2024/03/23 07:23:23;;;;;;;22.20;14.55;;;;;;;7.53;42.43;93858.44;5017360;28;20569;-69
2024/03/23 07:26:05;;;;;;;26.92;14.98;;;;;;;7.90;41.68;93849.59;5017952;28;20213;-69
2024/03/23 07:28:34;;;;;;;30.05;15.93;;;;;;;8.03;41.70;93855.94;5016547;28;20036;-69
2024/03/23 07:31:03;;;;;;;25.60;15.25;;;;;;;7.52;42.88;93853.47;5014387;28;20056;-69
2024/03/23 07:33:29;;;;;;;22.35;17.33;;;;;;;7.75;42.25;93843.78;5038068;28;20091;-69
2024/03/23 07:35:54;;;;;;;25.35;15.18;;;;;;;7.21;44.30;93850.56;5034879;28;20029;-69
2024/03/23 07:38:20;;;;;;;28.63;16.52;;;;;;;7.53;42.57;93844.44;5035318;28;20080;-69
2024/03/23 07:40:45;;;;;;;26.42;15.27;;;;;;;7.80;42.26;93846.34;5039417;28;20033;-69
2024/03/23 07:43:10;;;;;;;23.98;14.38;;;;;;;7.66;42.33;93847.09;5037186;28;20033;-69
2024/03/23 07:45:37;;;;;;;18.00;13.30;;;;;;;7.57;42.16;93840.94;5039023;28;20516;-69
2024/03/23 07:48:04;;;;;;;22.52;13.70;;;;;;;7.47;42.21;93848.25;5039893;28;20458;-69
2024/03/23 07:50:29;;;;;;;39.70;15.00;;;;;;;7.78;41.72;93837.94;5040587;28;20393;-69
2024/03/23 07:52:54;;;;;;;22.13;14.07;;;;;;;7.88;41.62;93835.84;5037155;28;20041;-69
2024/03/23 07:55:21;;;;;;;27.52;15.57;;;;;;;8.14;41.06;93833.47;5036603;28;20057;-68
2024/03/23 07:57:46;;;;;;;22.95;14.93;;;;;;;8.24;40.34;93838.56;5033185;28;20029;-69
2024/03/23 08:00:13;;;;;;;23.60;16.17;;;;;;;8.02;41.19;93838.50;5039848;28;20043;-69
2024/03/23 08:02:38;;;;;;;20.33;13.73;;;;;;;8.16;41.73;93836.63;5034884;28;20037;-69
2024/03/23 08:05:04;;;;;;;21.23;13.02;;;;;;;8.31;41.20;93841.59;5032704;28;20102;-69
2024/03/23 08:07:30;;;;;;;29.48;15.40;;;;;;;8.47;40.12;93834.88;5035576;28;20533;-69
2024/03/23 08:09:55;;;;;;;28.33;15.18;;;;;;;8.44;40.64;93843.44;5037487;28;20479;-69
2024/03/23 08:12:20;;;;;;;20.00;13.77;;;;;;;8.47;40.34;93826.91;5037274;28;20044;-69
2024/03/23 08:14:46;;;;;;;24.55;15.00;;;;;;;8.51;41.48;93835.84;5037882;28;20037;-69
2024/03/23 08:17:11;;;;;;;25.55;14.70;;;;;;;8.22;40.89;93837.31;5035732;28;20501;-69
2024/03/23 08:19:36;;;;;;;21.95;14.07;;;;;;;8.59;40.80;93832.50;5039575;28;20048;-69
2024/03/23 08:22:02;;;;;;;31.73;14.80;;;;;;;8.65;40.45;93819.13;5038833;28;20041;-68
2024/03/23 08:24:28;;;;;;;21.27;14.20;;;;;;;8.87;40.12;93827.88;5040218;28;20037;-69
2024/03/23 08:26:54;;;;;;;24.02;14.70;;;;;;;8.74;40.10;93822.63;5038260;28;20048;-69
2024/03/23 08:29:20;;;;;;;18.20;13.02;;;;;;;8.86;39.86;93823.63;5038050;28;20068;-69
2024/03/23 08:31:45;;;;;;;23.80;14.15;;;;;;;9.00;39.81;93816.41;5037543;28;20091;-69
2024/03/23 08:34:10;;;;;;;23.40;15.00;;;;;;;8.95;39.24;93824.47;5039448;28;20067;-68
2024/03/23 08:36:36;;;;;;;25.48;14.57;;;;;;;8.97;39.15;93819.66;5042529;28;20017;-69
2024/03/23 08:39:01;;;;;;;22.85;14.02;;;;;;;8.92;39.06;93814.47;5041519;28;20037;-69
2024/03/23 08:41:27;;;;;;;31.52;15.20;;;;;;;9.00;39.99;93815.59;5040341;28;20042;-69
2024/03/23 08:43:52;;;;;;;37.45;13.65;;;;;;;8.90;38.49;93815.88;5041785;28;20041;-68
2024/03/23 08:46:17;;;;;;;24.77;13.57;;;;;;;9.09;38.54;93803.22;5039655;28;20041;-69
2024/03/23 08:48:45;;;;;;;19.77;13.77;;;;;;;8.96;39.24;93804.03;5041582;28;20025;-69
2024/03/23 08:51:15;;;;;;;20.40;12.88;;;;;;;9.14;37.74;93795.16;5042059;28;20532;-69
2024/03/23 08:53:40;;;;;;;19.92;13.05;;;;;;;9.15;38.16;93786.09;5028225;28;20037;-69
2024/03/23 08:56:07;;;;;;;18.75;12.15;;;;;;;9.51;38.18;93793.13;5014737;28;20060;-69
2024/03/23 08:58:34;;;;;;;25.77;13.95;;;;;;;9.45;37.86;93790.59;5019729;28;20038;-69
2024/03/23 09:01:04;;;;;;;20.55;13.77;;;;;;;9.35;37.82;93780.25;5021812;28;20022;-69
2024/03/23 09:03:30;;;;;;;24.42;13.85;;;;;;;9.30;37.50;93782.25;5041487;28;20123;-69
2024/03/23 09:05:56;;;;;;;29.10;13.50;;;;;;;9.13;38.19;93788.28;5042250;28;20045;-69
2024/03/23 09:08:21;;;;;;;18.92;12.40;;;;;;;9.01;38.22;93770.22;5039816;28;20056;-69
2024/03/23 09:10:48;;;;;;;16.38;12.30;;;;;;;9.43;37.77;93776.09;5040526;28;20601;-69
2024/03/23 09:13:13;;;;;;;21.50;13.00;;;;;;;9.65;38.22;93770.69;5038969;28;20580;-70
2024/03/23 09:15:50;;;;;;;22.52;13.65;;;;;;;9.66;36.81;93768.81;5039768;28;20057;-70
2024/03/23 09:18:15;;;;;;;22.05;13.18;;;;;;;9.89;37.38;93767.63;5037854;28;20088;-69
2024/03/23 09:20:41;;;;;;;20.17;12.80;;;;;;;9.81;36.36;93763.09;5039328;28;20042;-69
2024/03/23 09:23:06;;;;;;;19.35;12.60;;;;;;;9.82;36.44;93764.66;5039411;28;20474;-69
2024/03/23 09:25:31;;;;;;;18.63;12.68;;;;;;;9.92;36.52;93748.44;5039398;28;20029;-69
2024/03/23 09:27:58;;;;;;;23.48;12.88;;;;;;;9.89;36.35;93751.69;5041289;28;20500;-69
2024/03/23 09:30:23;;;;;;;19.60;11.40;;;;;;;9.97;36.33;93745.63;5021127;28;20039;-69
2024/03/23 09:32:49;;;;;;;16.17;10.15;;;;;;;10.25;35.39;93743.47;5013784;28;20041;-69
2024/03/23 09:35:14;;;;;;;21.38;10.23;;;;;;;10.39;34.72;93743.34;5017770;28;20038;-69
2024/03/23 09:37:39;;;;;;;18.38;10.43;;;;;;;10.26;34.23;93747.69;5024747;28;20124;-69
2024/03/23 09:40:15;;;;;;;12.63;8.70;;;;;;;10.29;33.99;93741.75;5034711;28;20445;-69
2024/03/23 09:42:46;;;;;;;15.77;9.05;;;;;;;10.53;34.13;93728.00;5037680;28;20029;-69
2024/03/23 09:45:19;;;;;;;12.05;7.63;;;;;;;10.67;32.41;93728.59;5034743;28;20041;-68
2024/03/23 09:47:46;;;;;;;18.67;10.15;;;;;;;10.60;33.91;93717.69;5038049;28;20033;-70
2024/03/23 09:50:13;;;;;;;15.90;10.60;;;;;;;10.27;34.93;93710.16;5037334;28;20040;-69
2024/03/23 09:52:40;;;;;;;15.60;10.18;;;;;;;10.49;34.23;93717.22;5039354;28;20037;-69
2024/03/23 09:55:06;;;;;;;14.13;9.40;;;;;;;10.08;34.76;93715.00;5036765;28;20028;-69
2024/03/23 09:57:31;;;;;;;17.38;9.98;;;;;;;9.66;36.62;93707.75;5039150;28;20198;-69
2024/03/23 09:59:57;;;;;;;18.90;10.63;;;;;;;10.22;35.05;93702.34;5039515;28;20044;-69
2024/03/23 10:02:24;;;;;;;19.02;10.48;;;;;;;10.42;34.90;93700.16;5040575;28;20026;-69
2024/03/23 10:04:49;;;;;;;19.63;11.90;;;;;;;10.51;35.13;93699.09;5032124;28;20045;-69
2024/03/23 10:07:18;;;;;;;20.25;11.05;;;;;;;10.29;36.83;93694.69;5017737;28;20027;-69
2024/03/23 10:09:44;;;;;;;20.30;11.30;;;;;;;10.63;34.10;93685.13;5017530;28;20486;-69
2024/03/23 10:12:11;;;;;;;19.08;10.65;;;;;;;10.61;34.78;93684.69;5020184;28;20107;-69
2024/03/23 10:14:37;;;;;;;16.25;10.80;;;;;;;10.50;34.80;93678.91;5012499;28;20519;-69
2024/03/23 10:17:20;;;;;;;19.90;11.38;;;;;;;10.97;34.89;93679.72;5021389;28;20052;-69
2024/03/23 10:19:50;;;;;;;15.27;10.73;;;;;;;11.25;33.76;93682.00;5017455;28;20037;-69
2024/03/23 10:22:20;;;;;;;16.27;10.60;;;;;;;11.00;34.91;93667.69;5018629;28;20021;-69
2024/03/23 10:24:46;;;;;;;18.60;12.43;;;;;;;11.16;35.27;93666.03;5021097;28;20118;-69
2024/03/23 10:27:19;;;;;;;19.58;11.45;;;;;;;11.25;35.00;93660.69;5019268;28;20038;-69
2024/03/23 10:29:46;;;;;;;14.60;10.05;;;;;;;11.41;33.13;93667.00;5015890;28;20148;-69
2024/03/23 10:32:12;;;;;;;23.38;10.60;;;;;;;11.40;33.47;93660.13;5020653;28;20053;-69
2024/03/23 10:34:38;;;;;;;17.75;10.73;;;;;;;11.56;33.39;93648.63;5015769;28;20640;-69
2024/03/23 10:37:05;;;;;;;15.70;9.45;;;;;;;11.75;33.48;93650.88;5023516;28;20143;-68
2024/03/23 10:39:38;;;;;;;14.52;9.95;;;;;;;11.80;33.23;93648.00;5039624;28;20024;-69
2024/03/23 10:42:05;;;;;;;17.50;9.75;;;;;;;11.85;32.19;93629.16;5039142;28;20037;-70
2024/03/23 10:44:31;;;;;;;16.77;9.38;;;;;;;11.96;31.72;93625.00;5029086;28;20124;-69
2024/03/23 10:47:02;;;;;;;16.00;9.02;;;;;;;12.10;31.08;93623.97;5020312;28;20507;-70
2024/03/23 10:49:32;;;;;;;15.15;9.35;;;;;;;11.98;31.80;93614.78;5016663;28;20415;-69
2024/03/23 10:51:59;;;;;;;14.60;8.90;;;;;;;11.96;32.12;93613.56;5018469;28;20053;-69
2024/03/23 10:54:26;;;;;;;14.55;9.60;;;;;;;12.08;32.07;93602.19;5018314;28;20464;-69
2024/03/23 10:57:09;;;;;;;17.17;10.25;;;;;;;11.59;34.25;93609.91;5022736;28;20041;-69
2024/03/23 10:59:37;;;;;;;13.18;8.48;;;;;;;11.53;33.12;93605.91;5020577;28;20037;-69
2024/03/23 11:02:03;;;;;;;15.05;9.40;;;;;;;11.92;32.79;93597.47;5017153;28;20037;-69
2024/03/23 11:04:34;;;;;;;19.73;9.63;;;;;;;11.98;31.49;93588.13;5021047;28;20041;-69
2024/03/23 11:07:00;;;;;;;14.68;8.75;;;;;;;12.11;32.09;93590.88;5019276;28;20022;-69
2024/03/23 11:09:34;;;;;;;13.48;8.80;;;;;;;12.28;31.94;93577.38;5017636;28;20093;-69
2024/03/23 11:12:28;;;;;;;12.77;8.77;;;;;;;12.26;32.97;93574.25;5016859;28;20057;-70
2024/03/23 11:15:00;;;;;;;14.40;8.38;;;;;;;12.11;32.80;93570.31;5014570;28;20042;-70
2024/03/23 11:17:26;;;;;;;12.68;8.68;;;;;;;12.36;31.15;93555.19;5021197;28;20029;-70
2024/03/23 11:19:56;;;;;;;14.45;8.70;;;;;;;12.36;30.81;93558.63;5016685;28;20049;-69
2024/03/23 11:22:37;;;;;;;15.13;9.98;;;;;;;12.23;31.38;93553.56;5019167;28;20029;-69
2024/03/23 11:25:03;;;;;;;17.17;9.77;;;;;;;12.36;30.96;93547.19;5039201;28;20078;-69
2024/03/23 11:27:28;;;;;;;14.63;9.15;;;;;;;12.41;30.66;93549.66;5039412;28;20072;-69